Terminal Aerodrome Forecast
Issued by NWS Atlanta, GA

Home | Current Version | Previous Version | Text Only | Print | Product List | Glossary On
Versions: 1 2 3 4 5 6 7 8 9 10 11 12 13 14 15 16 17 18 19 20 21 22 23 24 25 26 27 28 29 30 31 32 33 34 35 36 37 38 39
000
FTUS42 KFFC 202145 AAB
TAFATL
TAF AMD
KATL 202145Z 2022/2124 13007KT P6SM BKN250
     FM210000 13004KT P6SM BKN250
     FM210900 11006KT P6SM SCT015 BKN040
     FM211500 12010KT P6SM BKN025 PROB30 2120/2124 -SHRA BKN015=

USA.gov is the U.S. government's official web portal to all federal, state and local government web resources and services.